sensor_id;sensor_type;location;lat;lon;timestamp;temperature;humidity
42031;DHT22;27709;52.036;5.906;2023-04-24T00:02:22;10.80;99.90
42031;DHT22;27709;52.036;5.906;2023-04-24T00:04:48;10.80;99.90
42031;DHT22;27709;52.036;5.906;2023-04-24T00:07:14;10.80;99.90
42031;DHT22;27709;52.036;5.906;2023-04-24T00:09:42;10.80;99.90
42031;DHT22;27709;52.036;5.906;2023-04-24T00:12:08;10.90;99.90
42031;DHT22;27709;52.036;5.906;2023-04-24T00:14:33;10.80;99.90
42031;DHT22;27709;52.036;5.906;2023-04-24T00:17:00;10.90;99.90
42031;DHT22;27709;52.036;5.906;2023-04-24T00:19:26;10.90;99.90
42031;DHT22;27709;52.036;5.906;2023-04-24T00:21:52;10.90;99.90
42031;DHT22;27709;52.036;5.906;2023-04-24T00:24:17;10.90;99.90
42031;DHT22;27709;52.036;5.906;2023-04-24T00:26:43;10.90;99.90
42031;DHT22;27709;52.036;5.906;2023-04-24T00:29:09;10.90;99.90
42031;DHT22;27709;52.036;5.906;2023-04-24T00:31:34;10.90;99.90
42031;DHT22;27709;52.036;5.906;2023-04-24T00:34:00;11.00;99.90
42031;DHT22;27709;52.036;5.906;2023-04-24T00:36:26;11.00;99.90
42031;DHT22;27709;52.036;5.906;2023-04-24T00:38:52;10.90;99.90
42031;DHT22;27709;52.036;5.906;2023-04-24T00:41:17;11.00;99.90
42031;DHT22;27709;52.036;5.906;2023-04-24T00:43:44;10.90;99.90
42031;DHT22;27709;52.036;5.906;2023-04-24T00:46:10;10.90;99.90
42031;DHT22;27709;52.036;5.906;2023-04-24T00:48:35;10.90;99.90
42031;DHT22;27709;52.036;5.906;2023-04-24T00:51:01;10.90;99.90
42031;DHT22;27709;52.036;5.906;2023-04-24T00:53:28;10.90;99.90
42031;DHT22;27709;52.036;5.906;2023-04-24T00:55:53;11.00;99.90
42031;DHT22;27709;52.036;5.906;2023-04-24T00:58:19;10.90;99.90
42031;DHT22;27709;52.036;5.906;2023-04-24T01:00:45;10.90;99.90
42031;DHT22;27709;52.036;5.906;2023-04-24T01:03:11;10.90;99.90
42031;DHT22;27709;52.036;5.906;2023-04-24T01:05:38;11.00;99.90
42031;DHT22;27709;52.036;5.906;2023-04-24T01:08:03;11.00;99.90
42031;DHT22;27709;52.036;5.906;2023-04-24T01:10:29;11.00;99.90
42031;DHT22;27709;52.036;5.906;2023-04-24T01:12:56;11.00;99.90
42031;DHT22;27709;52.036;5.906;2023-04-24T01:15:21;10.90;99.90
42031;DHT22;27709;52.036;5.906;2023-04-24T01:17:47;10.90;99.90
42031;DHT22;27709;52.036;5.906;2023-04-24T01:20:12;10.90;99.90
42031;DHT22;27709;52.036;5.906;2023-04-24T01:22:38;10.90;99.90
42031;DHT22;27709;52.036;5.906;2023-04-24T01:25:03;10.90;99.90
42031;DHT22;27709;52.036;5.906;2023-04-24T01:27:30;11.00;99.90
42031;DHT22;27709;52.036;5.906;2023-04-24T01:29:55;11.00;99.90
42031;DHT22;27709;52.036;5.906;2023-04-24T01:32:21;11.10;99.90
42031;DHT22;27709;52.036;5.906;2023-04-24T01:34:47;11.10;99.90
42031;DHT22;27709;52.036;5.906;2023-04-24T01:37:13;11.00;99.90
42031;DHT22;27709;52.036;5.906;2023-04-24T01:39:38;11.00;99.90
42031;DHT22;27709;52.036;5.906;2023-04-24T01:42:04;10.90;99.90
42031;DHT22;27709;52.036;5.906;2023-04-24T01:44:30;10.90;99.90
42031;DHT22;27709;52.036;5.906;2023-04-24T01:46:56;10.90;99.90
42031;DHT22;27709;52.036;5.906;2023-04-24T01:49:21;10.80;99.90
42031;DHT22;27709;52.036;5.906;2023-04-24T01:51:47;10.80;99.90
42031;DHT22;27709;52.036;5.906;2023-04-24T01:54:12;10.70;99.90
42031;DHT22;27709;52.036;5.906;2023-04-24T01:56:40;10.70;99.90
42031;DHT22;27709;52.036;5.906;2023-04-24T01:59:06;10.70;99.90
42031;DHT22;27709;52.036;5.906;2023-04-24T02:01:36;10.70;99.90
42031;DHT22;27709;52.036;5.906;2023-04-24T02:04:01;10.70;99.90
42031;DHT22;27709;52.036;5.906;2023-04-24T02:06:27;10.70;99.90
42031;DHT22;27709;52.036;5.906;2023-04-24T02:08:52;10.70;99.90
42031;DHT22;27709;52.036;5.906;2023-04-24T02:11:18;10.70;99.90
42031;DHT22;27709;52.036;5.906;2023-04-24T02:13:44;10.70;99.90
42031;DHT22;27709;52.036;5.906;2023-04-24T02:16:09;10.70;99.90
42031;DHT22;27709;52.036;5.906;2023-04-24T02:18:35;10.80;99.90
42031;DHT22;27709;52.036;5.906;2023-04-24T02:21:00;10.80;99.90
42031;DHT22;27709;52.036;5.906;2023-04-24T02:23:25;10.80;99.90
42031;DHT22;27709;52.036;5.906;2023-04-24T02:25:52;10.80;99.90
42031;DHT22;27709;52.036;5.906;2023-04-24T02:28:18;10.80;99.90
42031;DHT22;27709;52.036;5.906;2023-04-24T02:30:44;10.80;99.90
42031;DHT22;27709;52.036;5.906;2023-04-24T02:33:09;10.90;99.90
42031;DHT22;27709;52.036;5.906;2023-04-24T02:35:35;10.80;99.90
42031;DHT22;27709;52.036;5.906;2023-04-24T02:38:00;10.80;99.90
42031;DHT22;27709;52.036;5.906;2023-04-24T02:40:26;10.80;99.90
42031;DHT22;27709;52.036;5.906;2023-04-24T02:42:51;10.80;99.90
42031;DHT22;27709;52.036;5.906;2023-04-24T02:45:17;10.80;99.90
42031;DHT22;27709;52.036;5.906;2023-04-24T02:47:43;10.80;99.90
42031;DHT22;27709;52.036;5.906;2023-04-24T02:50:09;10.80;99.90
42031;DHT22;27709;52.036;5.906;2023-04-24T02:52:34;10.80;99.90
42031;DHT22;27709;52.036;5.906;2023-04-24T02:55:00;10.80;99.90
42031;DHT22;27709;52.036;5.906;2023-04-24T02:57:25;10.80;99.90
42031;DHT22;27709;52.036;5.906;2023-04-24T02:59:51;10.80;99.90
42031;DHT22;27709;52.036;5.906;2023-04-24T03:02:16;10.80;99.90
42031;DHT22;27709;52.036;5.906;2023-04-24T03:04:42;10.80;99.90
42031;DHT22;27709;52.036;5.906;2023-04-24T03:07:08;10.80;99.90
42031;DHT22;27709;52.036;5.906;2023-04-24T03:09:33;10.80;99.90
42031;DHT22;27709;52.036;5.906;2023-04-24T03:11:59;10.80;99.90
42031;DHT22;27709;52.036;5.906;2023-04-24T03:14:25;10.80;99.90
42031;DHT22;27709;52.036;5.906;2023-04-24T03:16:51;10.80;99.90
42031;DHT22;27709;52.036;5.906;2023-04-24T03:19:16;10.70;99.90
42031;DHT22;27709;52.036;5.906;2023-04-24T03:21:41;10.70;99.90
42031;DHT22;27709;52.036;5.906;2023-04-24T03:24:07;10.70;99.90
42031;DHT22;27709;52.036;5.906;2023-04-24T03:26:33;10.60;99.90
42031;DHT22;27709;52.036;5.906;2023-04-24T03:28:59;10.60;99.90
42031;DHT22;27709;52.036;5.906;2023-04-24T03:31:24;10.50;99.90
42031;DHT22;27709;52.036;5.906;2023-04-24T03:33:50;10.50;99.90
42031;DHT22;27709;52.036;5.906;2023-04-24T03:36:16;10.50;99.90
42031;DHT22;27709;52.036;5.906;2023-04-24T03:38:42;10.50;99.90
42031;DHT22;27709;52.036;5.906;2023-04-24T03:41:07;10.50;99.90
42031;DHT22;27709;52.036;5.906;2023-04-24T03:43:33;10.50;99.90
42031;DHT22;27709;52.036;5.906;2023-04-24T03:46:00;10.50;99.90
42031;DHT22;27709;52.036;5.906;2023-04-24T03:48:25;10.50;99.90
42031;DHT22;27709;52.036;5.906;2023-04-24T03:50:51;10.50;99.90
42031;DHT22;27709;52.036;5.906;2023-04-24T03:53:16;10.40;99.90
42031;DHT22;27709;52.036;5.906;2023-04-24T03:55:41;10.40;99.90
42031;DHT22;27709;52.036;5.906;2023-04-24T03:58:07;10.40;99.90
42031;DHT22;27709;52.036;5.906;2023-04-24T04:00:32;10.40;99.90
42031;DHT22;27709;52.036;5.906;2023-04-24T04:03:00;10.50;99.90
42031;DHT22;27709;52.036;5.906;2023-04-24T04:05:25;10.40;99.90
42031;DHT22;27709;52.036;5.906;2023-04-24T04:07:51;10.50;99.90
42031;DHT22;27709;52.036;5.906;2023-04-24T04:10:16;10.40;99.90
42031;DHT22;27709;52.036;5.906;2023-04-24T04:12:42;10.40;99.90
42031;DHT22;27709;52.036;5.906;2023-04-24T04:15:08;10.40;99.90
42031;DHT22;27709;52.036;5.906;2023-04-24T04:17:33;10.40;99.90
42031;DHT22;27709;52.036;5.906;2023-04-24T04:19:58;10.40;99.90
42031;DHT22;27709;52.036;5.906;2023-04-24T04:22:24;10.40;99.90
42031;DHT22;27709;52.036;5.906;2023-04-24T04:24:49;10.40;99.90
42031;DHT22;27709;52.036;5.906;2023-04-24T04:27:16;10.40;99.90
42031;DHT22;27709;52.036;5.906;2023-04-24T04:29:41;10.40;99.90
42031;DHT22;27709;52.036;5.906;2023-04-24T04:32:07;10.30;99.90
42031;DHT22;27709;52.036;5.906;2023-04-24T04:34:32;10.30;99.90
42031;DHT22;27709;52.036;5.906;2023-04-24T04:36:58;10.30;99.90
42031;DHT22;27709;52.036;5.906;2023-04-24T04:39:27;10.30;99.90
42031;DHT22;27709;52.036;5.906;2023-04-24T04:41:53;10.20;99.90
42031;DHT22;27709;52.036;5.906;2023-04-24T04:44:19;10.20;99.90
42031;DHT22;27709;52.036;5.906;2023-04-24T04:46:44;10.10;99.90
42031;DHT22;27709;52.036;5.906;2023-04-24T04:49:10;10.10;99.90
42031;DHT22;27709;52.036;5.906;2023-04-24T04:51:36;10.10;99.90
42031;DHT22;27709;52.036;5.906;2023-04-24T04:54:01;10.10;99.90
42031;DHT22;27709;52.036;5.906;2023-04-24T04:56:27;10.10;99.90
42031;DHT22;27709;52.036;5.906;2023-04-24T04:58:52;10.10;99.90
42031;DHT22;27709;52.036;5.906;2023-04-24T05:01:18;10.10;99.90
42031;DHT22;27709;52.036;5.906;2023-04-24T05:03:44;10.10;99.90
42031;DHT22;27709;52.036;5.906;2023-04-24T05:06:09;10.10;99.90
42031;DHT22;27709;52.036;5.906;2023-04-24T05:08:35;10.10;99.90
42031;DHT22;27709;52.036;5.906;2023-04-24T05:11:00;10.10;99.90
42031;DHT22;27709;52.036;5.906;2023-04-24T05:13:26;10.10;99.90
42031;DHT22;27709;52.036;5.906;2023-04-24T05:15:51;10.10;99.90
42031;DHT22;27709;52.036;5.906;2023-04-24T05:18:17;10.10;99.90
42031;DHT22;27709;52.036;5.906;2023-04-24T05:20:42;10.10;99.90
42031;DHT22;27709;52.036;5.906;2023-04-24T05:23:09;10.00;99.90
42031;DHT22;27709;52.036;5.906;2023-04-24T05:25:36;10.00;99.90
42031;DHT22;27709;52.036;5.906;2023-04-24T05:28:01;10.00;99.90
42031;DHT22;27709;52.036;5.906;2023-04-24T05:30:27;10.00;99.90
42031;DHT22;27709;52.036;5.906;2023-04-24T05:32:53;10.00;99.90
42031;DHT22;27709;52.036;5.906;2023-04-24T05:35:18;10.00;99.90
42031;DHT22;27709;52.036;5.906;2023-04-24T05:37:44;10.00;99.90
42031;DHT22;27709;52.036;5.906;2023-04-24T05:40:09;10.10;99.90
42031;DHT22;27709;52.036;5.906;2023-04-24T05:42:35;10.10;99.90
42031;DHT22;27709;52.036;5.906;2023-04-24T05:45:01;10.20;99.90
42031;DHT22;27709;52.036;5.906;2023-04-24T05:47:26;10.30;99.90
42031;DHT22;27709;52.036;5.906;2023-04-24T05:49:52;10.50;99.90
42031;DHT22;27709;52.036;5.906;2023-04-24T05:52:18;10.60;99.90
42031;DHT22;27709;52.036;5.906;2023-04-24T05:54:43;10.70;99.90
42031;DHT22;27709;52.036;5.906;2023-04-24T05:57:09;10.70;99.90
42031;DHT22;27709;52.036;5.906;2023-04-24T05:59:36;10.80;99.90
42031;DHT22;27709;52.036;5.906;2023-04-24T06:02:01;10.80;99.90
42031;DHT22;27709;52.036;5.906;2023-04-24T06:04:28;10.80;99.90
42031;DHT22;27709;52.036;5.906;2023-04-24T06:06:53;10.90;99.90
42031;DHT22;27709;52.036;5.906;2023-04-24T06:09:24;10.90;99.90
42031;DHT22;27709;52.036;5.906;2023-04-24T06:11:51;10.90;99.90
42031;DHT22;27709;52.036;5.906;2023-04-24T06:14:19;10.90;99.90
42031;DHT22;27709;52.036;5.906;2023-04-24T06:16:45;10.90;99.90
42031;DHT22;27709;52.036;5.906;2023-04-24T06:19:10;10.90;99.90
42031;DHT22;27709;52.036;5.906;2023-04-24T06:21:36;10.90;99.90
42031;DHT22;27709;52.036;5.906;2023-04-24T06:24:01;10.90;99.90
42031;DHT22;27709;52.036;5.906;2023-04-24T06:26:27;10.90;99.90
42031;DHT22;27709;52.036;5.906;2023-04-24T06:28:53;10.90;99.90
42031;DHT22;27709;52.036;5.906;2023-04-24T06:31:19;10.90;99.90
42031;DHT22;27709;52.036;5.906;2023-04-24T06:33:45;11.00;99.90
42031;DHT22;27709;52.036;5.906;2023-04-24T06:36:10;11.00;99.90
42031;DHT22;27709;52.036;5.906;2023-04-24T06:38:36;11.00;99.90
42031;DHT22;27709;52.036;5.906;2023-04-24T06:41:01;11.10;99.90
42031;DHT22;27709;52.036;5.906;2023-04-24T06:43:28;11.10;99.90
42031;DHT22;27709;52.036;5.906;2023-04-24T06:45:53;11.10;99.90
42031;DHT22;27709;52.036;5.906;2023-04-24T06:48:19;11.10;99.90
42031;DHT22;27709;52.036;5.906;2023-04-24T06:50:44;11.10;99.90
42031;DHT22;27709;52.036;5.906;2023-04-24T06:53:10;11.20;99.90
42031;DHT22;27709;52.036;5.906;2023-04-24T06:55:37;11.20;99.90
42031;DHT22;27709;52.036;5.906;2023-04-24T06:58:03;11.30;99.90
42031;DHT22;27709;52.036;5.906;2023-04-24T07:00:28;11.30;99.90
42031;DHT22;27709;52.036;5.906;2023-04-24T07:02:55;11.40;99.90
42031;DHT22;27709;52.036;5.906;2023-04-24T07:05:20;11.50;99.90
42031;DHT22;27709;52.036;5.906;2023-04-24T07:07:49;11.50;99.90
42031;DHT22;27709;52.036;5.906;2023-04-24T07:10:15;11.60;99.90
42031;DHT22;27709;52.036;5.906;2023-04-24T07:12:41;11.60;99.90
42031;DHT22;27709;52.036;5.906;2023-04-24T07:15:07;11.60;99.90
42031;DHT22;27709;52.036;5.906;2023-04-24T07:17:33;11.60;99.90
42031;DHT22;27709;52.036;5.906;2023-04-24T07:20:00;11.60;99.90
42031;DHT22;27709;52.036;5.906;2023-04-24T07:22:28;11.60;99.90
42031;DHT22;27709;52.036;5.906;2023-04-24T07:24:54;11.60;99.90
42031;DHT22;27709;52.036;5.906;2023-04-24T07:27:19;11.50;99.90
42031;DHT22;27709;52.036;5.906;2023-04-24T07:29:44;11.50;99.90
42031;DHT22;27709;52.036;5.906;2023-04-24T07:32:10;11.50;99.90
42031;DHT22;27709;52.036;5.906;2023-04-24T07:34:36;11.50;99.90
42031;DHT22;27709;52.036;5.906;2023-04-24T07:37:01;11.50;99.90
42031;DHT22;27709;52.036;5.906;2023-04-24T07:39:27;11.50;99.90
42031;DHT22;27709;52.036;5.906;2023-04-24T07:41:53;11.50;99.90
42031;DHT22;27709;52.036;5.906;2023-04-24T07:44:18;11.50;99.90
42031;DHT22;27709;52.036;5.906;2023-04-24T07:46:44;11.50;99.90
42031;DHT22;27709;52.036;5.906;2023-04-24T07:49:09;11.50;99.90
42031;DHT22;27709;52.036;5.906;2023-04-24T07:51:35;11.30;99.90
42031;DHT22;27709;52.036;5.906;2023-04-24T07:54:04;11.30;99.90
42031;DHT22;27709;52.036;5.906;2023-04-24T07:56:32;11.20;99.90
42031;DHT22;27709;52.036;5.906;2023-04-24T07:58:58;11.20;99.90
42031;DHT22;27709;52.036;5.906;2023-04-24T08:01:23;11.10;99.90
42031;DHT22;27709;52.036;5.906;2023-04-24T08:03:49;11.00;99.90
42031;DHT22;27709;52.036;5.906;2023-04-24T08:06:15;11.00;99.90
42031;DHT22;27709;52.036;5.906;2023-04-24T08:08:40;11.00;99.90
42031;DHT22;27709;52.036;5.906;2023-04-24T08:11:05;11.00;99.90
42031;DHT22;27709;52.036;5.906;2023-04-24T08:13:31;10.90;99.90
42031;DHT22;27709;52.036;5.906;2023-04-24T08:15:56;10.90;99.90
42031;DHT22;27709;52.036;5.906;2023-04-24T08:18:22;10.80;99.90
42031;DHT22;27709;52.036;5.906;2023-04-24T08:20:48;10.80;99.90
42031;DHT22;27709;52.036;5.906;2023-04-24T08:23:13;10.80;99.90
42031;DHT22;27709;52.036;5.906;2023-04-24T08:25:39;10.80;99.90
42031;DHT22;27709;52.036;5.906;2023-04-24T08:28:05;10.80;99.90
42031;DHT22;27709;52.036;5.906;2023-04-24T08:30:30;10.70;99.90
42031;DHT22;27709;52.036;5.906;2023-04-24T08:32:56;10.70;99.90
42031;DHT22;27709;52.036;5.906;2023-04-24T08:35:22;10.80;99.90
42031;DHT22;27709;52.036;5.906;2023-04-24T08:37:48;10.70;99.90
42031;DHT22;27709;52.036;5.906;2023-04-24T08:40:14;10.80;99.90
42031;DHT22;27709;52.036;5.906;2023-04-24T08:42:41;10.80;99.90
42031;DHT22;27709;52.036;5.906;2023-04-24T08:45:07;10.80;99.90
42031;DHT22;27709;52.036;5.906;2023-04-24T08:47:33;10.90;99.90
42031;DHT22;27709;52.036;5.906;2023-04-24T08:50:00;10.90;99.90
42031;DHT22;27709;52.036;5.906;2023-04-24T08:52:28;10.90;99.90
42031;DHT22;27709;52.036;5.906;2023-04-24T08:54:53;10.90;99.90
42031;DHT22;27709;52.036;5.906;2023-04-24T08:57:20;10.90;99.90
42031;DHT22;27709;52.036;5.906;2023-04-24T08:59:45;10.90;99.90
42031;DHT22;27709;52.036;5.906;2023-04-24T09:02:12;10.80;99.90
42031;DHT22;27709;52.036;5.906;2023-04-24T09:04:38;10.80;99.90
42031;DHT22;27709;52.036;5.906;2023-04-24T09:07:05;10.80;99.90
42031;DHT22;27709;52.036;5.906;2023-04-24T09:09:32;10.90;99.90
42031;DHT22;27709;52.036;5.906;2023-04-24T09:11:57;10.90;99.90
42031;DHT22;27709;52.036;5.906;2023-04-24T09:14:23;10.90;99.90
42031;DHT22;27709;52.036;5.906;2023-04-24T09:16:50;11.00;99.90
42031;DHT22;27709;52.036;5.906;2023-04-24T09:19:15;10.80;99.90
42031;DHT22;27709;52.036;5.906;2023-04-24T09:21:41;10.80;99.90
42031;DHT22;27709;52.036;5.906;2023-04-24T09:24:20;10.80;99.90
42031;DHT22;27709;52.036;5.906;2023-04-24T09:26:48;10.80;99.90
42031;DHT22;27709;52.036;5.906;2023-04-24T09:29:16;10.80;99.90
42031;DHT22;27709;52.036;5.906;2023-04-24T09:31:42;10.80;99.90
42031;DHT22;27709;52.036;5.906;2023-04-24T09:34:09;10.80;99.90
42031;DHT22;27709;52.036;5.906;2023-04-24T09:36:35;10.80;99.90
42031;DHT22;27709;52.036;5.906;2023-04-24T09:39:04;10.80;99.90
42031;DHT22;27709;52.036;5.906;2023-04-24T09:41:33;10.80;99.90
42031;DHT22;27709;52.036;5.906;2023-04-24T09:44:12;10.80;99.90
42031;DHT22;27709;52.036;5.906;2023-04-24T09:46:38;10.90;99.90
42031;DHT22;27709;52.036;5.906;2023-04-24T09:49:07;11.00;99.90
42031;DHT22;27709;52.036;5.906;2023-04-24T09:51:34;11.10;99.90
42031;DHT22;27709;52.036;5.906;2023-04-24T09:54:03;11.20;99.90
42031;DHT22;27709;52.036;5.906;2023-04-24T09:56:32;11.40;99.90
42031;DHT22;27709;52.036;5.906;2023-04-24T09:59:04;11.40;99.90
42031;DHT22;27709;52.036;5.906;2023-04-24T10:01:30;11.60;99.90
42031;DHT22;27709;52.036;5.906;2023-04-24T10:03:56;11.60;99.90
42031;DHT22;27709;52.036;5.906;2023-04-24T10:06:24;11.70;99.90
42031;DHT22;27709;52.036;5.906;2023-04-24T10:08:55;11.80;99.90
42031;DHT22;27709;52.036;5.906;2023-04-24T10:11:24;11.80;99.90
42031;DHT22;27709;52.036;5.906;2023-04-24T10:13:50;11.90;99.90
42031;DHT22;27709;52.036;5.906;2023-04-24T10:16:15;12.00;99.90
42031;DHT22;27709;52.036;5.906;2023-04-24T10:18:45;12.10;99.90
42031;DHT22;27709;52.036;5.906;2023-04-24T10:21:11;12.30;99.90
42031;DHT22;27709;52.036;5.906;2023-04-24T10:23:37;12.40;99.90
42031;DHT22;27709;52.036;5.906;2023-04-24T10:26:03;12.50;99.90
42031;DHT22;27709;52.036;5.906;2023-04-24T10:28:29;12.50;99.90
42031;DHT22;27709;52.036;5.906;2023-04-24T10:30:56;12.50;99.90
42031;DHT22;27709;52.036;5.906;2023-04-24T10:33:22;12.40;99.90
42031;DHT22;27709;52.036;5.906;2023-04-24T10:35:48;12.40;99.90
42031;DHT22;27709;52.036;5.906;2023-04-24T10:38:22;12.20;99.90
42031;DHT22;27709;52.036;5.906;2023-04-24T10:40:49;12.00;99.90
42031;DHT22;27709;52.036;5.906;2023-04-24T10:43:16;11.80;99.90
42031;DHT22;27709;52.036;5.906;2023-04-24T10:46:01;11.70;99.90
42031;DHT22;27709;52.036;5.906;2023-04-24T10:48:29;11.70;99.90
42031;DHT22;27709;52.036;5.906;2023-04-24T10:50:56;11.70;99.90
42031;DHT22;27709;52.036;5.906;2023-04-24T10:53:23;11.70;99.90
42031;DHT22;27709;52.036;5.906;2023-04-24T10:55:50;11.80;99.90
42031;DHT22;27709;52.036;5.906;2023-04-24T10:58:15;11.90;99.90
42031;DHT22;27709;52.036;5.906;2023-04-24T11:00:42;12.00;99.90
42031;DHT22;27709;52.036;5.906;2023-04-24T11:06:04;12.30;99.90
42031;DHT22;27709;52.036;5.906;2023-04-24T11:08:32;12.40;99.90
42031;DHT22;27709;52.036;5.906;2023-04-24T11:13:28;12.70;99.90
42031;DHT22;27709;52.036;5.906;2023-04-24T11:16:26;12.70;99.90
42031;DHT22;27709;52.036;5.906;2023-04-24T11:21:39;12.80;99.90
42031;DHT22;27709;52.036;5.906;2023-04-24T11:27:11;13.30;99.90
42031;DHT22;27709;52.036;5.906;2023-04-24T11:32:25;13.80;99.90
42031;DHT22;27709;52.036;5.906;2023-04-24T11:34:52;13.90;99.90
42031;DHT22;27709;52.036;5.906;2023-04-24T11:37:21;13.80;99.90
42031;DHT22;27709;52.036;5.906;2023-04-24T11:39:46;13.60;99.90
42031;DHT22;27709;52.036;5.906;2023-04-24T11:42:14;13.40;99.90
42031;DHT22;27709;52.036;5.906;2023-04-24T11:44:40;13.20;99.90
42031;DHT22;27709;52.036;5.906;2023-04-24T11:47:06;13.10;99.90
42031;DHT22;27709;52.036;5.906;2023-04-24T11:49:37;13.00;99.90
42031;DHT22;27709;52.036;5.906;2023-04-24T11:52:03;12.90;99.90
42031;DHT22;27709;52.036;5.906;2023-04-24T11:54:29;12.80;99.90
42031;DHT22;27709;52.036;5.906;2023-04-24T11:56:55;12.70;99.90
42031;DHT22;27709;52.036;5.906;2023-04-24T11:59:21;12.60;99.90
42031;DHT22;27709;52.036;5.906;2023-04-24T12:01:47;12.60;99.90
42031;DHT22;27709;52.036;5.906;2023-04-24T12:04:13;12.40;99.90
42031;DHT22;27709;52.036;5.906;2023-04-24T12:06:38;12.40;99.90
42031;DHT22;27709;52.036;5.906;2023-04-24T12:09:04;12.20;99.90
42031;DHT22;27709;52.036;5.906;2023-04-24T12:11:30;12.00;99.90
42031;DHT22;27709;52.036;5.906;2023-04-24T12:13:55;11.90;99.90
42031;DHT22;27709;52.036;5.906;2023-04-24T12:16:21;11.80;99.90
42031;DHT22;27709;52.036;5.906;2023-04-24T12:18:46;12.00;99.90
42031;DHT22;27709;52.036;5.906;2023-04-24T12:21:21;12.30;99.90
42031;DHT22;27709;52.036;5.906;2023-04-24T12:23:47;12.70;99.90
42031;DHT22;27709;52.036;5.906;2023-04-24T12:26:17;13.20;99.90
42031;DHT22;27709;52.036;5.906;2023-04-24T12:28:45;13.50;99.90
42031;DHT22;27709;52.036;5.906;2023-04-24T12:31:11;13.60;99.90
42031;DHT22;27709;52.036;5.906;2023-04-24T12:33:36;13.70;99.90
42031;DHT22;27709;52.036;5.906;2023-04-24T12:36:02;13.90;99.90
42031;DHT22;27709;52.036;5.906;2023-04-24T12:38:28;14.10;99.90
42031;DHT22;27709;52.036;5.906;2023-04-24T12:41:03;14.20;99.90
42031;DHT22;27709;52.036;5.906;2023-04-24T12:43:29;14.30;99.90
42031;DHT22;27709;52.036;5.906;2023-04-24T12:45:55;14.40;99.90
42031;DHT22;27709;52.036;5.906;2023-04-24T12:48:20;14.30;99.90
42031;DHT22;27709;52.036;5.906;2023-04-24T12:50:47;14.10;99.90
42031;DHT22;27709;52.036;5.906;2023-04-24T12:53:13;13.80;99.90
42031;DHT22;27709;52.036;5.906;2023-04-24T12:55:38;13.60;99.90
42031;DHT22;27709;52.036;5.906;2023-04-24T12:58:04;13.40;99.90
42031;DHT22;27709;52.036;5.906;2023-04-24T13:00:29;13.20;99.90
42031;DHT22;27709;52.036;5.906;2023-04-24T13:02:55;13.00;99.90
42031;DHT22;27709;52.036;5.906;2023-04-24T13:05:20;13.00;99.90
42031;DHT22;27709;52.036;5.906;2023-04-24T13:07:46;13.00;99.90
42031;DHT22;27709;52.036;5.906;2023-04-24T13:10:12;13.20;99.90
42031;DHT22;27709;52.036;5.906;2023-04-24T13:12:38;13.40;99.90
42031;DHT22;27709;52.036;5.906;2023-04-24T13:15:04;13.60;99.90
42031;DHT22;27709;52.036;5.906;2023-04-24T13:17:29;13.80;99.90
42031;DHT22;27709;52.036;5.906;2023-04-24T13:19:55;13.90;99.90
42031;DHT22;27709;52.036;5.906;2023-04-24T13:22:20;13.90;99.90
42031;DHT22;27709;52.036;5.906;2023-04-24T13:24:47;13.80;99.90
42031;DHT22;27709;52.036;5.906;2023-04-24T13:27:16;13.60;99.90
42031;DHT22;27709;52.036;5.906;2023-04-24T13:29:41;13.30;99.90
42031;DHT22;27709;52.036;5.906;2023-04-24T13:32:07;13.10;99.90
42031;DHT22;27709;52.036;5.906;2023-04-24T13:34:33;12.80;99.90
42031;DHT22;27709;52.036;5.906;2023-04-24T13:37:00;12.60;99.90
42031;DHT22;27709;52.036;5.906;2023-04-24T13:39:25;12.60;99.90
42031;DHT22;27709;52.036;5.906;2023-04-24T13:41:51;12.70;99.90
42031;DHT22;27709;52.036;5.906;2023-04-24T13:44:17;12.80;99.90
42031;DHT22;27709;52.036;5.906;2023-04-24T13:46:44;12.90;99.90
42031;DHT22;27709;52.036;5.906;2023-04-24T13:49:10;12.80;99.90
42031;DHT22;27709;52.036;5.906;2023-04-24T13:51:36;12.60;99.90
42031;DHT22;27709;52.036;5.906;2023-04-24T13:54:01;12.50;99.90
42031;DHT22;27709;52.036;5.906;2023-04-24T13:56:27;12.30;99.90
42031;DHT22;27709;52.036;5.906;2023-04-24T13:58:52;12.30;99.90
42031;DHT22;27709;52.036;5.906;2023-04-24T14:01:19;12.30;99.90
42031;DHT22;27709;52.036;5.906;2023-04-24T14:03:46;12.30;99.90
42031;DHT22;27709;52.036;5.906;2023-04-24T14:06:11;12.40;99.90
42031;DHT22;27709;52.036;5.906;2023-04-24T14:08:37;12.50;99.90
42031;DHT22;27709;52.036;5.906;2023-04-24T14:11:02;12.80;99.90
42031;DHT22;27709;52.036;5.906;2023-04-24T14:13:28;13.00;99.90
42031;DHT22;27709;52.036;5.906;2023-04-24T14:15:54;13.00;99.90
42031;DHT22;27709;52.036;5.906;2023-04-24T14:18:19;13.10;99.90
42031;DHT22;27709;52.036;5.906;2023-04-24T14:20:45;13.10;99.90
42031;DHT22;27709;52.036;5.906;2023-04-24T14:23:10;13.10;99.90
42031;DHT22;27709;52.036;5.906;2023-04-24T14:25:36;13.00;99.90
42031;DHT22;27709;52.036;5.906;2023-04-24T14:28:01;12.90;99.90
42031;DHT22;27709;52.036;5.906;2023-04-24T14:30:28;12.80;99.90
42031;DHT22;27709;52.036;5.906;2023-04-24T14:32:54;12.80;99.90
42031;DHT22;27709;52.036;5.906;2023-04-24T14:35:19;13.00;99.90
42031;DHT22;27709;52.036;5.906;2023-04-24T14:37:44;13.00;99.90
42031;DHT22;27709;52.036;5.906;2023-04-24T14:40:10;13.00;99.90
42031;DHT22;27709;52.036;5.906;2023-04-24T14:42:36;13.00;99.90
42031;DHT22;27709;52.036;5.906;2023-04-24T14:45:01;12.90;99.90
42031;DHT22;27709;52.036;5.906;2023-04-24T14:47:27;12.90;99.90
42031;DHT22;27709;52.036;5.906;2023-04-24T14:49:53;12.90;99.90
42031;DHT22;27709;52.036;5.906;2023-04-24T14:52:18;12.80;99.90
42031;DHT22;27709;52.036;5.906;2023-04-24T14:54:44;12.70;99.90
42031;DHT22;27709;52.036;5.906;2023-04-24T14:57:09;12.80;99.90
42031;DHT22;27709;52.036;5.906;2023-04-24T14:59:35;12.90;99.90
42031;DHT22;27709;52.036;5.906;2023-04-24T15:02:00;12.90;99.90
42031;DHT22;27709;52.036;5.906;2023-04-24T15:04:26;13.00;99.90
42031;DHT22;27709;52.036;5.906;2023-04-24T15:06:52;13.00;99.90
42031;DHT22;27709;52.036;5.906;2023-04-24T15:09:21;13.00;99.90
42031;DHT22;27709;52.036;5.906;2023-04-24T15:11:48;13.10;99.90
42031;DHT22;27709;52.036;5.906;2023-04-24T15:14:14;13.20;99.90
42031;DHT22;27709;52.036;5.906;2023-04-24T15:16:41;13.30;99.90
42031;DHT22;27709;52.036;5.906;2023-04-24T15:19:06;13.50;99.90
42031;DHT22;27709;52.036;5.906;2023-04-24T15:21:32;13.60;99.90
42031;DHT22;27709;52.036;5.906;2023-04-24T15:24:00;13.60;99.90
42031;DHT22;27709;52.036;5.906;2023-04-24T15:26:28;13.60;99.90
42031;DHT22;27709;52.036;5.906;2023-04-24T15:28:55;13.50;99.90
42031;DHT22;27709;52.036;5.906;2023-04-24T15:31:20;13.40;99.90
42031;DHT22;27709;52.036;5.906;2023-04-24T15:33:48;13.30;99.90
42031;DHT22;27709;52.036;5.906;2023-04-24T15:36:16;13.20;99.90
42031;DHT22;27709;52.036;5.906;2023-04-24T15:38:43;13.10;99.90